createdAt,value
2016-10-26T00:00:58.921Z,0
2016-10-26T00:02:11.453Z,0
2016-10-26T00:03:24.487Z,0
2016-10-26T00:04:37.537Z,0
2016-10-26T00:05:50.581Z,0
2016-10-26T00:07:03.570Z,0
2016-10-26T00:08:16.637Z,0
2016-10-26T00:09:29.634Z,0
2016-10-26T00:10:43.184Z,0
2016-10-26T00:11:56.750Z,0
2016-10-26T00:13:09.761Z,0
2016-10-26T00:14:21.771Z,0
2016-10-26T00:15:34.839Z,0
2016-10-26T00:16:47.379Z,0
2016-10-26T00:18:00.481Z,0
2016-10-26T00:19:13.577Z,0
2016-10-26T00:20:27.144Z,0
2016-10-26T00:21:40.208Z,0
2016-10-26T00:22:53.283Z,0
2016-10-26T00:24:05.777Z,0
2016-10-26T00:25:18.812Z,0
2016-10-26T00:26:31.820Z,0
2016-10-26T00:27:43.812Z,0
2016-10-26T00:28:56.870Z,0
2016-10-26T00:30:09.887Z,0
2016-10-26T00:31:23.416Z,0
2016-10-26T00:32:35.418Z,0
2016-10-26T00:33:47.968Z,0
2016-10-26T00:35:01.055Z,0
2016-10-26T00:36:12.512Z,0
2016-10-26T00:37:25.041Z,0
2016-10-26T00:38:37.035Z,0
2016-10-26T00:39:50.055Z,0
2016-10-26T00:41:03.179Z,0
2016-10-26T00:42:16.216Z,0
2016-10-26T00:43:29.261Z,0
2016-10-26T00:44:41.789Z,0
2016-10-26T00:45:53.728Z,0
2016-10-26T00:47:06.252Z,0
2016-10-26T00:48:19.833Z,0
2016-10-26T00:49:32.335Z,0
2016-10-26T00:50:45.911Z,0
2016-10-26T00:51:58.885Z,0
2016-10-26T00:53:12.452Z,0
2016-10-26T00:54:25.409Z,0
2016-10-26T00:55:38.502Z,0
2016-10-26T00:56:50.452Z,0
2016-10-26T00:58:03.918Z,0
2016-10-26T00:59:15.862Z,0
2016-10-26T01:00:28.833Z,0
2016-10-26T01:01:42.315Z,0
2016-10-26T01:02:54.737Z,0
2016-10-26T01:04:07.195Z,0
2016-10-26T01:05:19.733Z,0
2016-10-26T01:06:32.218Z,0
2016-10-26T01:07:45.729Z,0
2016-10-26T01:08:59.285Z,0
2016-10-26T01:10:12.855Z,0
2016-10-26T01:11:25.502Z,0
2016-10-26T01:12:38.500Z,0
2016-10-26T01:13:50.961Z,0
2016-10-26T01:15:04.475Z,0
2016-10-26T01:16:17.988Z,0
2016-10-26T01:17:31.031Z,0
2016-10-26T01:18:44.502Z,0
2016-10-26T01:19:56.999Z,0
2016-10-26T01:21:10.035Z,0
2016-10-26T01:22:23.005Z,0
2016-10-26T01:23:36.069Z,0
2016-10-26T01:24:49.635Z,0
2016-10-26T01:26:02.720Z,0
2016-10-26T01:27:16.215Z,0
2016-10-26T01:28:29.191Z,0
2016-10-26T01:29:42.248Z,0
2016-10-26T01:30:55.302Z,0
2016-10-26T01:32:07.869Z,0
2016-10-26T01:33:21.588Z,0
2016-10-26T01:34:34.780Z,0
2016-10-26T01:35:48.348Z,0
2016-10-26T01:37:00.934Z,0
2016-10-26T01:38:13.977Z,0
2016-10-26T01:39:27.506Z,0
2016-10-26T01:40:40.658Z,0
2016-10-26T01:41:53.158Z,0
2016-10-26T01:43:05.718Z,0
2016-10-26T01:44:19.405Z,0
2016-10-26T01:45:32.312Z,0
2016-10-26T01:46:45.386Z,0
2016-10-26T01:47:57.944Z,0
2016-10-26T01:49:10.517Z,0
2016-10-26T01:50:23.569Z,0
2016-10-26T01:51:37.111Z,0
2016-10-26T01:52:49.640Z,0
2016-10-26T01:54:02.735Z,0
2016-10-26T01:55:16.445Z,0
2016-10-26T01:56:28.988Z,0
2016-10-26T01:57:42.522Z,0
2016-10-26T01:58:55.595Z,0
2016-10-26T02:00:08.616Z,0
2016-10-26T02:01:21.113Z,0
2016-10-26T02:02:34.764Z,0
2016-10-26T02:03:47.422Z,0
2016-10-26T02:05:00.528Z,0
2016-10-26T02:06:12.510Z,0
2016-10-26T02:07:55.646Z,0
2016-10-26T02:09:07.103Z,0
2016-10-26T02:10:20.206Z,0
2016-10-26T02:11:33.259Z,0
2016-10-26T02:12:46.885Z,0
2016-10-26T02:14:00.459Z,0
2016-10-26T02:15:14.020Z,0
2016-10-26T02:16:28.718Z,0
2016-10-26T02:17:41.564Z,0
2016-10-26T02:18:54.609Z,0
2016-10-26T02:20:06.633Z,0
2016-10-26T02:21:19.824Z,0
2016-10-26T02:22:32.833Z,0
2016-10-26T02:23:46.359Z,0
2016-10-26T02:24:59.970Z,0
2016-10-26T02:26:13.043Z,0
2016-10-26T02:27:26.619Z,0
2016-10-26T02:28:39.626Z,0
2016-10-26T02:29:52.228Z,0
2016-10-26T02:31:05.289Z,0
2016-10-26T02:32:18.852Z,0
2016-10-26T02:33:32.464Z,0
2016-10-26T02:34:45.517Z,0
2016-10-26T02:35:58.175Z,0
2016-10-26T02:37:10.752Z,0
2016-10-26T02:38:22.770Z,0
2016-10-26T02:39:35.799Z,0
2016-10-26T02:40:49.379Z,0
2016-10-26T02:42:02.572Z,0
2016-10-26T02:43:16.107Z,0
2016-10-26T02:44:28.081Z,0
2016-10-26T02:45:41.164Z,0
2016-10-26T02:46:54.731Z,0
2016-10-26T02:48:06.219Z,0
2016-10-26T02:49:19.264Z,0
2016-10-26T02:50:31.776Z,0
2016-10-26T02:51:44.834Z,0
2016-10-26T02:52:57.919Z,0
2016-10-26T02:54:11.510Z,0
2016-10-26T02:55:25.135Z,0
2016-10-26T02:56:38.729Z,0
2016-10-26T02:57:51.750Z,0
2016-10-26T02:59:04.276Z,0
2016-10-26T03:00:17.845Z,0
2016-10-26T03:01:30.938Z,0
2016-10-26T03:02:44.078Z,0
2016-10-26T03:03:57.658Z,0
2016-10-26T03:05:10.762Z,0
2016-10-26T03:06:24.396Z,0
2016-10-26T03:07:37.447Z,0
2016-10-26T03:08:51.079Z,0
2016-10-26T03:10:04.208Z,0
2016-10-26T03:11:17.821Z,0
2016-10-26T03:12:30.881Z,0
2016-10-26T03:13:43.366Z,0
2016-10-26T03:14:55.899Z,0
2016-10-26T03:16:08.937Z,0
2016-10-26T03:17:22.014Z,0
2016-10-26T03:18:35.069Z,0
2016-10-26T03:19:48.130Z,0
2016-10-26T03:21:01.782Z,0
2016-10-26T03:22:14.838Z,0
2016-10-26T03:23:28.529Z,0
2016-10-26T03:24:41.096Z,0
2016-10-26T03:25:54.181Z,0
2016-10-26T03:27:06.681Z,0
2016-10-26T03:28:18.657Z,0
2016-10-26T03:29:31.212Z,0
2016-10-26T03:30:44.248Z,0
2016-10-26T03:31:57.879Z,0
2016-10-26T03:33:10.951Z,0
2016-10-26T03:34:24.063Z,0
2016-10-26T03:35:37.073Z,0
2016-10-26T03:36:50.625Z,0
2016-10-26T03:38:03.149Z,0
2016-10-26T03:39:15.797Z,0
2016-10-26T03:40:29.329Z,0
2016-10-26T03:41:42.989Z,0
2016-10-26T03:42:56.511Z,0
2016-10-26T03:44:10.084Z,0
2016-10-26T03:45:22.599Z,0
2016-10-26T03:46:35.633Z,0
2016-10-26T03:47:48.709Z,0
2016-10-26T03:49:01.803Z,0
2016-10-26T03:50:14.365Z,0
2016-10-26T03:51:27.395Z,0
2016-10-26T03:52:41.051Z,0
2016-10-26T03:53:54.186Z,0
2016-10-26T03:55:06.754Z,0
2016-10-26T03:56:19.239Z,0
2016-10-26T03:57:31.781Z,0
2016-10-26T03:58:44.821Z,0
2016-10-26T03:59:56.803Z,0
2016-10-26T04:01:10.306Z,0
2016-10-26T04:02:23.358Z,0
2016-10-26T04:03:36.454Z,0
2016-10-26T04:04:49.524Z,0
2016-10-26T04:06:02.115Z,0
2016-10-26T04:07:15.211Z,0
2016-10-26T04:08:28.280Z,0
2016-10-26T04:09:41.228Z,0
2016-10-26T04:10:54.814Z,0
2016-10-26T04:12:07.913Z,0
2016-10-26T04:13:20.957Z,0
2016-10-26T04:14:33.980Z,0
2016-10-26T04:15:47.021Z,0
2016-10-26T04:16:58.983Z,0
2016-10-26T04:18:12.028Z,0
2016-10-26T04:19:25.061Z,0
2016-10-26T04:20:38.675Z,0
2016-10-26T04:21:52.241Z,0
2016-10-26T04:23:05.345Z,0
2016-10-26T04:24:18.341Z,0
2016-10-26T04:25:30.876Z,0
2016-10-26T04:26:44.505Z,0
2016-10-26T04:27:56.487Z,0
2016-10-26T04:29:09.573Z,0
2016-10-26T04:30:22.603Z,0
2016-10-26T04:31:35.650Z,0
2016-10-26T04:32:48.705Z,0
2016-10-26T04:34:01.814Z,0
2016-10-26T04:35:15.420Z,0
2016-10-26T04:36:29.005Z,0
2016-10-26T04:37:42.013Z,0
2016-10-26T04:38:55.040Z,0
2016-10-26T04:40:08.040Z,0
2016-10-26T04:41:21.609Z,0
2016-10-26T04:42:35.263Z,0
2016-10-26T04:43:47.840Z,0
2016-10-26T04:45:00.899Z,0
2016-10-26T04:46:14.471Z,0
2016-10-26T04:47:27.638Z,0
2016-10-26T04:48:40.648Z,0
2016-10-26T04:49:53.731Z,0
2016-10-26T04:51:07.302Z,0
2016-10-26T04:52:20.295Z,0
2016-10-26T04:53:33.323Z,0
2016-10-26T04:54:46.877Z,0
2016-10-26T04:56:00.467Z,0
2016-10-26T04:57:13.039Z,0
2016-10-26T04:58:26.648Z,0
2016-10-26T04:59:40.272Z,0
2016-10-26T05:00:53.852Z,0
2016-10-26T05:02:06.984Z,0
2016-10-26T05:03:19.997Z,0
2016-10-26T05:04:31.966Z,0
2016-10-26T05:05:45.600Z,0
2016-10-26T05:06:58.644Z,0
2016-10-26T05:08:11.193Z,0
2016-10-26T05:09:24.179Z,0
2016-10-26T05:10:37.720Z,0
2016-10-26T05:11:51.414Z,0
2016-10-26T05:13:04.438Z,0
2016-10-26T05:14:18.005Z,0
2016-10-26T05:15:31.613Z,0
2016-10-26T05:16:45.215Z,0
2016-10-26T05:17:58.274Z,0
2016-10-26T05:19:11.882Z,0
2016-10-26T05:20:24.902Z,0
2016-10-26T05:21:38.024Z,0
2016-10-26T05:22:51.555Z,0
2016-10-26T05:24:05.085Z,0
2016-10-26T05:25:17.576Z,0
2016-10-26T05:26:30.055Z,0
2016-10-26T05:27:43.607Z,0
2016-10-26T05:28:56.628Z,0
2016-10-26T05:30:09.641Z,0
2016-10-26T05:31:22.655Z,0
2016-10-26T05:32:35.726Z,0
2016-10-26T05:33:49.282Z,0
2016-10-26T05:35:02.333Z,0
2016-10-26T05:36:15.355Z,0
2016-10-26T05:37:28.433Z,0
2016-10-26T05:38:41.485Z,0
2016-10-26T05:39:55.047Z,0
2016-10-26T05:41:07.546Z,0
2016-10-26T05:42:20.651Z,0
2016-10-26T05:43:33.803Z,0
2016-10-26T05:44:47.376Z,0
2016-10-26T05:46:00.977Z,0
2016-10-26T05:47:14.556Z,0
2016-10-26T05:48:28.119Z,0
2016-10-26T05:49:41.682Z,0
2016-10-26T05:50:55.274Z,0
2016-10-26T05:52:08.372Z,0
2016-10-26T05:53:21.930Z,0
2016-10-26T05:54:34.988Z,0
2016-10-26T05:55:47.645Z,0
2016-10-26T05:57:00.636Z,0
2016-10-26T05:58:13.709Z,0
2016-10-26T05:59:26.740Z,0
2016-10-26T06:00:39.265Z,0
2016-10-26T06:01:52.847Z,0
2016-10-26T06:03:05.940Z,0
2016-10-26T06:04:18.972Z,0
2016-10-26T06:05:32.040Z,0
2016-10-26T06:06:44.566Z,0
2016-10-26T06:07:57.134Z,0
2016-10-26T06:09:10.161Z,0
2016-10-26T06:10:23.711Z,0
2016-10-26T06:11:36.245Z,0
2016-10-26T06:12:49.303Z,0
2016-10-26T06:14:02.824Z,0
2016-10-26T06:15:16.421Z,0
2016-10-26T06:16:29.443Z,0
2016-10-26T06:17:43.067Z,0
2016-10-26T06:18:56.588Z,0
2016-10-26T06:20:08.631Z,0
2016-10-26T06:21:21.168Z,0
2016-10-26T06:22:34.197Z,0
2016-10-26T06:23:46.685Z,0
2016-10-26T06:24:59.780Z,0
2016-10-26T06:26:11.743Z,0
2016-10-26T06:27:24.280Z,0
2016-10-26T06:28:37.343Z,0
2016-10-26T06:29:49.904Z,0
2016-10-26T06:31:02.938Z,0
2016-10-26T06:32:16.531Z,0
2016-10-26T06:33:30.146Z,0
2016-10-26T06:34:43.138Z,0
2016-10-26T06:35:56.743Z,0
2016-10-26T06:37:09.824Z,0
2016-10-26T06:38:23.347Z,0
2016-10-26T06:39:35.876Z,0
2016-10-26T06:40:48.408Z,0
2016-10-26T06:42:00.948Z,0
2016-10-26T06:43:14.522Z,0
2016-10-26T06:44:27.472Z,0
2016-10-26T06:45:40.575Z,0
2016-10-26T06:46:53.072Z,0
2016-10-26T06:48:05.590Z,0
2016-10-26T06:49:19.143Z,0
2016-10-26T06:50:32.224Z,0
2016-10-26T06:51:45.869Z,0
2016-10-26T06:52:58.942Z,0
2016-10-26T06:54:11.957Z,0
2016-10-26T06:55:24.484Z,0
2016-10-26T06:56:36.456Z,0
2016-10-26T06:57:49.554Z,0
2016-10-26T06:59:02.605Z,0
2016-10-26T07:00:15.076Z,0
2016-10-26T07:01:28.164Z,0
2016-10-26T07:02:41.715Z,0
2016-10-26T07:03:54.233Z,0
2016-10-26T07:05:06.241Z,0
2016-10-26T07:06:19.273Z,0
2016-10-26T07:07:32.881Z,0
2016-10-26T07:08:45.427Z,0
2016-10-26T07:09:57.877Z,0
2016-10-26T07:11:10.952Z,0
2016-10-26T07:12:24.557Z,0
2016-10-26T07:13:37.083Z,0
2016-10-26T07:14:49.039Z,0
2016-10-26T07:16:02.579Z,0
2016-10-26T07:17:15.652Z,0
2016-10-26T07:18:28.169Z,0
2016-10-26T07:19:41.191Z,0
2016-10-26T07:20:54.872Z,0
2016-10-26T07:22:07.931Z,0
2016-10-26T07:23:21.011Z,0
2016-10-26T07:24:34.581Z,0
2016-10-26T07:25:47.683Z,0
2016-10-26T07:27:00.217Z,0
2016-10-26T07:28:13.201Z,0
2016-10-26T07:29:26.289Z,0
2016-10-26T07:30:38.853Z,0
2016-10-26T07:31:51.344Z,0
2016-10-26T07:33:04.385Z,0
2016-10-26T07:34:17.546Z,0
2016-10-26T07:35:29.033Z,0
2016-10-26T07:36:42.101Z,0
2016-10-26T07:37:54.577Z,0
2016-10-26T07:39:08.189Z,0
2016-10-26T07:40:21.701Z,0
2016-10-26T07:41:35.290Z,0
2016-10-26T07:42:48.909Z,0
2016-10-26T07:44:01.453Z,0
2016-10-26T07:45:14.500Z,0
2016-10-26T07:46:28.210Z,0
2016-10-26T07:47:40.765Z,0
2016-10-26T07:48:53.821Z,0
2016-10-26T07:50:07.354Z,0
2016-10-26T07:51:52.047Z,0
2016-10-26T07:53:05.124Z,0
2016-10-26T07:54:18.081Z,0
2016-10-26T07:55:30.082Z,0
2016-10-26T07:56:43.139Z,0
2016-10-26T07:57:55.689Z,0
2016-10-26T07:59:07.665Z,0
2016-10-26T08:00:20.234Z,0
2016-10-26T08:01:33.252Z,0
2016-10-26T08:02:45.241Z,4
2016-10-26T08:03:58.335Z,0
2016-10-26T08:05:10.874Z,4
2016-10-26T08:06:22.365Z,4
2016-10-26T08:07:35.391Z,4
2016-10-26T08:08:49.027Z,4
2016-10-26T08:10:01.580Z,8
2016-10-26T08:11:45.746Z,12
2016-10-26T08:12:57.737Z,12
2016-10-26T08:14:10.254Z,16
2016-10-26T08:15:22.792Z,20
2016-10-26T08:16:35.272Z,32
2016-10-26T08:17:48.952Z,40
2016-10-26T08:19:01.991Z,44
2016-10-26T08:20:13.998Z,52
2016-10-26T08:21:27.164Z,72
2016-10-26T08:22:40.236Z,84
2016-10-26T08:23:52.762Z,88
2016-10-26T08:25:05.803Z,104
2016-10-26T08:26:19.306Z,136
2016-10-26T08:27:32.858Z,164
2016-10-26T08:28:46.427Z,192
2016-10-26T08:29:59.987Z,240
2016-10-26T08:31:12.508Z,268
2016-10-26T08:32:26.019Z,296
2016-10-26T08:33:39.068Z,340
2016-10-26T08:34:52.638Z,392
2016-10-26T08:36:05.764Z,436
2016-10-26T08:37:18.325Z,468
2016-10-26T08:38:30.862Z,492
2016-10-26T08:39:43.350Z,612
2016-10-26T08:40:54.772Z,808
2016-10-26T08:42:07.784Z,888
2016-10-26T08:43:20.771Z,944
2016-10-26T08:44:33.811Z,892
2016-10-26T08:45:46.887Z,980
2016-10-26T08:46:59.861Z,760
2016-10-26T08:48:12.433Z,636
2016-10-26T08:49:26.049Z,604
2016-10-26T08:50:39.072Z,604
2016-10-26T08:51:52.648Z,640
2016-10-26T08:53:05.168Z,592
2016-10-26T08:54:17.698Z,588
2016-10-26T08:55:29.690Z,600
2016-10-26T08:56:42.758Z,604
2016-10-26T08:57:55.248Z,564
2016-10-26T08:59:08.245Z,548
2016-10-26T09:00:21.798Z,476
2016-10-26T09:01:34.898Z,516
2016-10-26T09:02:47.907Z,592
2016-10-26T09:04:01.483Z,588
2016-10-26T09:05:15.072Z,604
2016-10-26T09:06:28.693Z,628
2016-10-26T09:07:41.730Z,640
2016-10-26T09:08:55.278Z,684
2016-10-26T09:10:08.305Z,736
2016-10-26T09:11:20.839Z,760
2016-10-26T09:12:33.844Z,776
2016-10-26T09:13:46.457Z,852
2016-10-26T09:14:59.532Z,960
2016-10-26T09:16:11.563Z,932
2016-10-26T09:17:24.062Z,952
2016-10-26T09:18:37.652Z,1100
2016-10-26T09:19:50.201Z,1216
2016-10-26T09:21:03.281Z,1164
2016-10-26T09:22:15.867Z,1116
2016-10-26T09:23:28.385Z,1228
2016-10-26T09:24:42.104Z,1300
2016-10-26T09:25:55.137Z,1244
2016-10-26T09:27:08.174Z,1396
2016-10-26T09:28:21.769Z,1632
2016-10-26T09:29:34.793Z,1564
2016-10-26T09:30:48.373Z,1516
2016-10-26T09:32:00.904Z,1672
2016-10-26T09:33:14.491Z,1744
2016-10-26T09:34:28.075Z,1772
2016-10-26T09:35:40.650Z,1760
2016-10-26T09:36:53.689Z,1872
2016-10-26T09:38:06.670Z,1720
2016-10-26T09:39:18.723Z,1880
2016-10-26T09:40:32.325Z,2000
2016-10-26T09:41:45.390Z,1944
2016-10-26T09:42:58.526Z,2084
2016-10-26T09:44:11.612Z,2168
2016-10-26T09:45:24.753Z,2124
2016-10-26T09:46:37.317Z,2084
2016-10-26T09:47:50.349Z,2136
2016-10-26T09:49:03.877Z,2500
2016-10-26T09:50:17.440Z,2672
2016-10-26T09:51:29.942Z,2544
2016-10-26T09:52:43.010Z,2600
2016-10-26T09:53:55.477Z,2464
2016-10-26T09:55:07.488Z,2228
2016-10-26T09:56:20.008Z,2208
2016-10-26T09:57:31.997Z,2420
2016-10-26T09:58:45.057Z,2620
2016-10-26T09:59:58.096Z,2680
2016-10-26T10:01:11.690Z,2712
2016-10-26T10:02:25.213Z,2804
2016-10-26T10:03:38.724Z,2936
2016-10-26T10:04:51.793Z,3000
2016-10-26T10:06:04.843Z,3060
2016-10-26T10:07:17.884Z,3204
2016-10-26T10:08:30.924Z,3368
2016-10-26T10:09:43.963Z,3612
2016-10-26T10:10:57.007Z,3724
2016-10-26T10:12:10.573Z,3844
2016-10-26T10:13:23.052Z,4064
2016-10-26T10:14:35.592Z,4248
2016-10-26T10:15:48.701Z,4536
2016-10-26T10:17:02.355Z,4792
2016-10-26T10:18:14.319Z,5060
2016-10-26T10:19:27.374Z,5552
2016-10-26T10:20:39.901Z,5848
2016-10-26T10:21:53.453Z,6092
2016-10-26T10:23:05.433Z,6332
2016-10-26T10:24:17.924Z,6752
2016-10-26T10:25:30.452Z,7488
2016-10-26T10:26:42.492Z,6984
2016-10-26T10:27:54.470Z,7052
2016-10-26T10:29:07.473Z,7164
2016-10-26T10:30:19.990Z,7352
2016-10-26T10:31:33.080Z,7500
2016-10-26T10:32:45.146Z,7928
2016-10-26T10:33:57.655Z,9364
2016-10-26T10:35:09.161Z,10096
2016-10-26T10:36:22.199Z,9232
2016-10-26T10:37:34.778Z,8944
2016-10-26T10:38:47.790Z,9596
2016-10-26T10:40:00.778Z,10244
2016-10-26T10:41:13.817Z,11404
2016-10-26T10:42:26.350Z,12484
2016-10-26T10:43:39.529Z,15940
2016-10-26T10:44:52.128Z,13076
2016-10-26T10:46:05.185Z,14656
2016-10-26T10:47:17.740Z,17024
2016-10-26T10:48:30.298Z,34016
2016-10-26T10:49:42.844Z,32928
2016-10-26T10:50:55.871Z,31488
2016-10-26T10:52:07.877Z,40128
2016-10-26T10:53:20.911Z,28224
2016-10-26T10:54:34.487Z,20960
2016-10-26T10:55:46.564Z,25056
2016-10-26T10:57:00.110Z,19584
2016-10-26T10:58:13.189Z,25152
2016-10-26T10:59:26.327Z,29632
2016-10-26T11:00:39.415Z,20576
2016-10-26T11:01:51.429Z,28320
2016-10-26T11:03:04.492Z,24064
2016-10-26T11:04:18.115Z,33312
2016-10-26T11:05:31.194Z,34752
2016-10-26T11:06:43.215Z,26688
2016-10-26T11:07:55.787Z,35104
2016-10-26T11:09:09.318Z,30912
2016-10-26T11:10:22.350Z,36256
2016-10-26T11:11:35.320Z,38944
2016-10-26T11:12:47.950Z,24352
2016-10-26T11:13:59.410Z,32960
2016-10-26T11:15:11.923Z,37312
2016-10-26T11:16:25.008Z,39744
2016-10-26T11:17:37.543Z,42816
2016-10-26T11:18:50.073Z,41664
2016-10-26T11:20:02.077Z,43584
2016-10-26T11:21:14.578Z,42592
2016-10-26T11:22:26.731Z,40352
2016-10-26T11:23:39.746Z,41472
2016-10-26T11:24:52.712Z,24352
2016-10-26T11:26:05.777Z,43552
2016-10-26T11:27:18.208Z,43232
2016-10-26T11:28:31.233Z,41600
2016-10-26T11:29:43.727Z,43744
2016-10-26T11:30:56.765Z,41888
2016-10-26T11:32:09.306Z,41504
2016-10-26T11:33:22.855Z,31136
2016-10-26T11:34:35.883Z,43328
2016-10-26T11:35:48.937Z,32416
2016-10-26T11:37:02.026Z,33536
2016-10-26T11:38:14.602Z,32864
2016-10-26T11:39:27.664Z,35968
2016-10-26T11:40:41.222Z,36000
2016-10-26T11:41:53.741Z,35360
2016-10-26T11:43:07.360Z,37600
2016-10-26T11:44:20.926Z,38336
2016-10-26T11:45:32.906Z,40064
2016-10-26T11:46:45.999Z,35904
2016-10-26T11:47:59.083Z,38368
2016-10-26T11:49:12.714Z,36736
2016-10-26T11:50:25.770Z,37472
2016-10-26T11:51:39.378Z,39840
2016-10-26T11:52:52.460Z,40064
2016-10-26T11:54:06.012Z,40512
2016-10-26T11:55:18.522Z,43616
2016-10-26T11:56:32.054Z,46592
2016-10-26T11:57:45.019Z,44192
2016-10-26T11:58:58.031Z,27232
2016-10-26T12:00:11.114Z,44448
2016-10-26T12:01:24.196Z,37120
2016-10-26T12:02:37.254Z,45760
2016-10-26T12:03:50.308Z,45184
2016-10-26T12:05:03.881Z,44640
2016-10-26T12:06:16.378Z,46528
2016-10-26T12:07:29.390Z,44832
2016-10-26T12:08:42.343Z,44768
2016-10-26T12:09:55.342Z,40928
2016-10-26T12:11:08.301Z,42688
2016-10-26T12:12:21.837Z,40288
2016-10-26T12:13:33.819Z,40480
2016-10-26T12:14:46.358Z,39360
2016-10-26T12:15:59.414Z,34688
2016-10-26T12:17:11.972Z,29184
2016-10-26T12:18:25.031Z,26592
2016-10-26T12:19:38.082Z,27264
2016-10-26T12:20:50.581Z,19616
2016-10-26T12:22:03.631Z,22784
2016-10-26T12:23:16.629Z,15064
2016-10-26T12:24:30.191Z,17984
2016-10-26T12:25:43.757Z,26112
2016-10-26T12:26:57.269Z,31488
2016-10-26T12:28:09.472Z,28352
2016-10-26T12:29:22.560Z,30432
2016-10-26T12:30:35.704Z,29760
2016-10-26T12:31:48.695Z,31712
2016-10-26T12:33:00.714Z,29248
2016-10-26T12:34:14.288Z,32992
2016-10-26T12:35:26.735Z,31296
2016-10-26T12:36:40.234Z,28384
2016-10-26T12:37:53.313Z,29888
2016-10-26T12:39:06.346Z,30848
2016-10-26T12:40:18.838Z,30208
2016-10-26T12:41:31.922Z,29088
2016-10-26T12:42:44.956Z,23232
2016-10-26T12:43:56.952Z,26688
2016-10-26T12:45:08.930Z,27392
2016-10-26T12:46:22.011Z,27872
2016-10-26T12:47:34.502Z,28000
2016-10-26T12:48:47.594Z,25696
2016-10-26T12:49:59.636Z,13952
2016-10-26T12:51:12.263Z,19872
2016-10-26T12:52:24.747Z,20224
2016-10-26T12:53:37.206Z,23328
2016-10-26T12:54:48.097Z,25440
2016-10-26T12:56:00.608Z,26528
2016-10-26T12:57:11.992Z,26144
2016-10-26T12:58:23.431Z,23360
2016-10-26T12:59:35.975Z,22016
2016-10-26T13:00:48.937Z,16512
2016-10-26T13:02:00.897Z,18144
2016-10-26T13:03:14.385Z,23168
2016-10-26T13:04:27.404Z,20736
2016-10-26T13:05:41.076Z,21088
2016-10-26T13:06:54.108Z,19392
2016-10-26T13:08:06.685Z,21856
2016-10-26T13:09:19.789Z,21568
2016-10-26T13:10:32.332Z,20832
2016-10-26T13:11:45.395Z,20096
2016-10-26T13:12:57.419Z,19904
2016-10-26T13:14:11.046Z,19904
2016-10-26T13:15:23.521Z,19904
2016-10-26T13:16:37.138Z,19392
2016-10-26T13:17:50.179Z,18464
2016-10-26T13:19:03.259Z,18848
2016-10-26T13:20:16.341Z,19072
2016-10-26T13:21:29.469Z,18336
2016-10-26T13:22:42.592Z,18592
2016-10-26T13:23:55.067Z,13776
2016-10-26T13:25:08.580Z,14276
2016-10-26T13:26:21.637Z,11448
2016-10-26T13:27:34.712Z,11312
2016-10-26T13:28:47.747Z,17824
2016-10-26T13:30:00.273Z,17344
2016-10-26T13:31:12.830Z,17088
2016-10-26T13:32:24.867Z,16928
2016-10-26T13:33:37.868Z,16320
2016-10-26T13:34:51.475Z,15776
2016-10-26T13:36:04.461Z,10636
2016-10-26T13:37:17.550Z,15936
2016-10-26T13:38:30.637Z,16768
2016-10-26T13:39:44.202Z,16384
2016-10-26T13:40:57.849Z,16576
2016-10-26T13:42:11.465Z,16416
2016-10-26T13:43:24.539Z,16384
2016-10-26T13:44:37.621Z,16256
2016-10-26T13:45:50.728Z,16032
2016-10-26T13:47:03.280Z,15584
2016-10-26T13:48:16.818Z,13840
2016-10-26T13:49:29.952Z,13732
2016-10-26T13:50:42.486Z,13600
2016-10-26T13:51:55.079Z,12796
2016-10-26T13:53:08.118Z,10176
2016-10-26T13:54:20.074Z,9560
2016-10-26T13:55:33.600Z,10128
2016-10-26T13:56:46.645Z,10360
2016-10-26T13:57:58.623Z,10748
2016-10-26T13:59:12.175Z,11196
2016-10-26T14:00:25.228Z,10652
2016-10-26T14:01:38.312Z,11500
2016-10-26T14:02:50.365Z,12332
2016-10-26T14:04:02.938Z,10988
2016-10-26T14:05:15.494Z,10664
2016-10-26T14:06:29.064Z,11472
2016-10-26T14:07:42.649Z,10664
2016-10-26T14:08:55.741Z,9788
2016-10-26T14:10:08.795Z,9288
2016-10-26T14:11:21.816Z,9324
2016-10-26T14:12:34.896Z,9596
2016-10-26T14:13:47.354Z,9832
2016-10-26T14:15:00.357Z,10588
2016-10-26T14:16:12.834Z,10764
2016-10-26T14:17:25.340Z,10220
2016-10-26T14:18:38.947Z,10700
2016-10-26T14:19:52.607Z,11116
2016-10-26T14:21:06.277Z,11908
2016-10-26T14:22:19.897Z,11748
2016-10-26T14:23:32.970Z,11352
2016-10-26T14:24:46.928Z,11092
2016-10-26T14:26:00.591Z,11576
2016-10-26T14:27:13.739Z,10832
2016-10-26T14:28:27.344Z,10684
2016-10-26T14:29:40.873Z,10908
2016-10-26T14:30:53.965Z,10664
2016-10-26T14:32:07.531Z,10364
2016-10-26T14:33:20.610Z,10404
2016-10-26T14:34:33.654Z,10440
2016-10-26T14:35:46.253Z,10748
2016-10-26T14:36:59.824Z,10992
2016-10-26T14:38:12.831Z,11600
2016-10-26T14:39:26.186Z,11720
2016-10-26T14:40:39.316Z,11912
2016-10-26T14:41:52.321Z,11864
2016-10-26T14:43:04.803Z,11624
2016-10-26T14:44:17.330Z,11508
2016-10-26T14:45:30.404Z,11692
2016-10-26T14:46:42.874Z,11816
2016-10-26T14:47:55.914Z,12252
2016-10-26T14:49:08.989Z,11692
2016-10-26T14:50:21.539Z,11612
2016-10-26T14:51:34.632Z,14280
2016-10-26T14:52:47.183Z,13340
2016-10-26T14:53:59.138Z,14372
2016-10-26T14:55:11.701Z,12728
2016-10-26T14:56:24.806Z,12788
2016-10-26T14:57:37.329Z,12588
2016-10-26T14:58:50.335Z,11848
2016-10-26T15:00:03.366Z,11740
2016-10-26T15:01:16.914Z,11844
2016-10-26T15:02:30.034Z,11816
2016-10-26T15:03:43.070Z,12228
2016-10-26T15:04:56.577Z,12308
2016-10-26T15:06:09.057Z,11712
2016-10-26T15:07:22.586Z,11884
2016-10-26T15:08:35.614Z,11316
2016-10-26T15:09:49.140Z,11692
2016-10-26T15:11:02.365Z,11736
2016-10-26T15:12:15.362Z,10956
2016-10-26T15:13:28.396Z,10520
2016-10-26T15:14:42.025Z,10156
2016-10-26T15:15:55.061Z,9820
2016-10-26T15:17:08.073Z,9116
2016-10-26T15:18:21.146Z,8820
2016-10-26T15:19:34.186Z,8316
2016-10-26T15:20:46.682Z,8560
2016-10-26T15:22:00.256Z,9044
2016-10-26T15:23:12.149Z,9732
2016-10-26T15:24:24.891Z,8892
2016-10-26T15:25:38.443Z,10356
2016-10-26T15:26:49.977Z,10644
2016-10-26T15:28:01.916Z,10272
2016-10-26T15:29:15.425Z,10332
2016-10-26T15:30:29.007Z,10216
2016-10-26T15:31:42.604Z,9308
2016-10-26T15:32:54.621Z,8680
2016-10-26T15:34:07.619Z,8520
2016-10-26T15:35:21.243Z,8836
2016-10-26T15:36:33.231Z,10092
2016-10-26T15:37:46.820Z,9956
2016-10-26T15:38:59.367Z,10060
2016-10-26T15:40:12.979Z,9648
2016-10-26T15:41:26.612Z,9928
2016-10-26T15:42:40.171Z,10368
2016-10-26T15:43:52.739Z,10524
2016-10-26T15:45:05.808Z,10700
2016-10-26T15:46:18.334Z,10600
2016-10-26T15:47:31.612Z,10140
2016-10-26T15:48:45.165Z,11100
2016-10-26T15:49:58.197Z,10816
2016-10-26T15:51:10.709Z,9956
2016-10-26T15:52:23.770Z,9820
2016-10-26T15:53:36.797Z,10092
2016-10-26T15:54:49.858Z,9148
2016-10-26T15:56:02.390Z,9252
2016-10-26T15:57:15.419Z,8848
2016-10-26T15:58:28.483Z,8572
2016-10-26T15:59:42.118Z,8964
2016-10-26T16:00:53.544Z,8884
2016-10-26T16:02:06.595Z,9460
2016-10-26T16:03:19.608Z,9936
2016-10-26T16:04:33.177Z,10444
2016-10-26T16:05:45.691Z,10564
2016-10-26T16:06:59.259Z,10496
2016-10-26T16:08:11.253Z,10600
2016-10-26T16:09:22.715Z,10496
2016-10-26T16:10:35.813Z,10492
2016-10-26T16:11:48.378Z,10484
2016-10-26T16:13:00.461Z,10288
2016-10-26T16:14:13.029Z,10168
2016-10-26T16:15:26.163Z,10072
2016-10-26T16:16:38.687Z,9568
2016-10-26T16:17:50.733Z,9276
2016-10-26T16:19:03.342Z,9724
2016-10-26T16:20:16.827Z,9724
2016-10-26T16:21:29.961Z,9312
2016-10-26T16:22:43.014Z,9192
2016-10-26T16:23:56.592Z,8524
2016-10-26T16:25:10.206Z,9192
2016-10-26T16:26:22.185Z,9316
2016-10-26T16:27:34.879Z,9500
2016-10-26T16:28:48.498Z,9892
2016-10-26T16:30:01.021Z,9636
2016-10-26T16:31:14.106Z,9372
2016-10-26T16:32:26.126Z,9276
2016-10-26T16:33:39.232Z,8324
2016-10-26T16:34:52.809Z,9236
2016-10-26T16:36:05.332Z,9480
2016-10-26T16:37:17.874Z,9124
2016-10-26T16:38:30.454Z,8680
2016-10-26T16:39:43.531Z,8100
2016-10-26T16:40:57.132Z,8616
2016-10-26T16:42:10.209Z,8708
2016-10-26T16:43:23.249Z,8840
2016-10-26T16:44:35.776Z,9012
2016-10-26T16:45:49.384Z,8964
2016-10-26T16:47:02.466Z,8636
2016-10-26T16:48:14.975Z,8144
2016-10-26T16:49:28.497Z,8012
2016-10-26T16:50:41.511Z,7512
2016-10-26T16:51:54.046Z,7428
2016-10-26T16:53:07.173Z,7564
2016-10-26T16:54:20.849Z,7600